Hebei Shijiazhuang — VRIS2 — position and weather

sailwx.info

Track history (hours):
 
Tides and Currents Weather Stations Pressure Air Temp Water Temp Dewpoint Dewpoint Depression Visibility Wind Speed Wind Dir Waves Ship Positions

Hebei Shijiazhuang

Last reported at 2014-Sep-11 04:09 UTC. Time now 2014-Sep-20 16:08 UTC.
Position N 22°24' E 119°48'.
Warning: this ship's position is 9 days out of date.

Length 235 m; draft 7.5 m.

Type: Cargo ship. MMSI: 477899600.

Date/timePositionNaut miles runAvg speedWind from/ knotsBaromVisibWave heightAir tempDewpointWater temp
2014-Sep-11 04:09N 22°24' E 119°48'1212.2
2014-Sep-11 03:10N 22°36' E 119°47'812.2
2014-Sep-11 02:33N 22°44' E 119°47'1111.6
2014-Sep-11 01:34N 22°55' E 119°48'4711.3
2014-Sep-10 21:21N 23°43' E 119°48'1113.6
2014-Sep-10 20:33N 23°53' E 119°53'2914.6
2014-Sep-10 18:33N 24°18' E 120°08'1813.7
2014-Sep-10 17:13N 24°34' E 120°19'913.4
2014-Sep-10 16:32N 24°42' E 120°23'1413.3
2014-Sep-10 15:27N 24°54' E 120°31'9813.2
2014-Sep-10 08:04N 26°19' E 121°25'25212.7
2014-Sep-09 12:17N 30°10' E 123°20'3512.8
2014-Sep-09 09:33N 30°44' E 123°17'1513.9
2014-Sep-09 08:27N 30°60' E 123°20'1314.3
2014-Sep-09 07:31N 31°13' E 123°20'31913.3
2014-Sep-08 07:29N 36°32' E 123°20'1713.3
2014-Sep-08 06:15N 36°49' E 123°19'2513.8
2014-Sep-08 04:28N 37°12' E 123°08'3015.1
2014-Sep-08 02:30N 37°39' E 122°55'1414.6
2014-Sep-08 01:32N 37°47' E 122°39'1413.7
2014-Sep-08 00:30N 37°54' E 122°24'1313.3
2014-Sep-07 23:31N 38°00' E 122°09'4114.0
2014-Sep-07 20:33N 38°21' E 121°24'1514.9
2014-Sep-07 19:32N 38°28' E 121°06'152 7.6
2014-Sep-06 23:32N 38°21' E 117°52'0 0.0
2014-Sep-06 22:26N 38°21' E 117°52'0 0.0
2014-Sep-06 19:32N 38°21' E 117°52'0 0.0
2014-Sep-06 18:32N 38°21' E 117°52'0 0.0
2014-Sep-06 17:32N 38°21' E 117°52'0 0.0
2014-Sep-06 16:14N 38°21' E 117°52'0 0.0
2014-Sep-06 15:14N 38°21' E 117°52'0 0.0
2014-Sep-06 14:32N 38°21' E 117°52'0 0.0
2014-Sep-06 13:26N 38°21' E 117°52'0 0.0
2014-Sep-06 12:32N 38°21' E 117°52'0 0.0
2014-Sep-06 11:26N 38°21' E 117°52'0 0.0
2014-Sep-06 10:26N 38°21' E 117°52'0 0.0
2014-Sep-06 09:20N 38°21' E 117°52'0 0.0
2014-Sep-06 08:32N 38°21' E 117°52'0 0.0
2014-Sep-06 01:32N 38°21' E 117°52'0 0.0
2014-Sep-05 15:32N 38°21' E 117°52'0 0.0
2014-Sep-05 14:20N 38°21' E 117°52'0 0.0
2014-Sep-05 13:14N 38°21' E 117°52'0 0.0
2014-Sep-05 12:32N 38°21' E 117°52'0 0.0
2014-Sep-04 16:32N 38°21' E 117°52'0 0.0
2014-Sep-04 15:15N 38°21' E 117°52'0 0.0
2014-Sep-04 14:20N 38°21' E 117°52'0 0.0
2014-Sep-04 13:32N 38°21' E 117°52'0 0.0
2014-Sep-04 12:20N 38°21' E 117°52'21 3.1
2014-Sep-04 05:30N 38°32' E 118°16'142 4.2
2014-Sep-02 19:33N 38°26' E 121°17'5111.6
2014-Sep-02 15:11N 37°59' E 122°13'3211.9
2014-Sep-02 12:29N 37°40' E 122°45'3210.9
2014-Sep-02 09:31N 37°13' E 123°06'2110.5
2014-Sep-02 07:28N 36°52' E 123°14'  
Track history (hours):
 
Tides and Currents Weather Stations Pressure Air Temp Water Temp Dewpoint Dewpoint Depression Visibility Wind Speed Wind Dir Waves Ship Positions

Hebei Shijiazhuang

Last reported at 2014-Sep-11 04:09 UTC. Time now 2014-Sep-20 16:08 UTC.
Position N 22°24' E 119°48'.
Warning: this ship's position is 9 days out of date.

Length 235 m; draft 7.5 m.

Type: Cargo ship. MMSI: 477899600.

Date/timePositionNaut miles runAvg speedWind from/ knotsBaromVisibWave heightAir tempDewpointWater temp
2014-Sep-11 04:09N 22°24' E 119°48'1212.2
2014-Sep-11 03:10N 22°36' E 119°47'812.2
2014-Sep-11 02:33N 22°44' E 119°47'1111.6
2014-Sep-11 01:34N 22°55' E 119°48'4711.3
2014-Sep-10 21:21N 23°43' E 119°48'1113.6
2014-Sep-10 20:33N 23°53' E 119°53'2914.6
2014-Sep-10 18:33N 24°18' E 120°08'1813.7
2014-Sep-10 17:13N 24°34' E 120°19'913.4
2014-Sep-10 16:32N 24°42' E 120°23'1413.3
2014-Sep-10 15:27N 24°54' E 120°31'9813.2
2014-Sep-10 08:04N 26°19' E 121°25'25212.7
2014-Sep-09 12:17N 30°10' E 123°20'3512.8
2014-Sep-09 09:33N 30°44' E 123°17'1513.9
2014-Sep-09 08:27N 30°60' E 123°20'1314.3
2014-Sep-09 07:31N 31°13' E 123°20'31913.3
2014-Sep-08 07:29N 36°32' E 123°20'1713.3
2014-Sep-08 06:15N 36°49' E 123°19'2513.8
2014-Sep-08 04:28N 37°12' E 123°08'3015.1
2014-Sep-08 02:30N 37°39' E 122°55'1414.6
2014-Sep-08 01:32N 37°47' E 122°39'1413.7
2014-Sep-08 00:30N 37°54' E 122°24'1313.3
2014-Sep-07 23:31N 38°00' E 122°09'4114.0
2014-Sep-07 20:33N 38°21' E 121°24'1514.9
2014-Sep-07 19:32N 38°28' E 121°06'152 7.6
2014-Sep-06 23:32N 38°21' E 117°52'0 0.0
2014-Sep-06 22:26N 38°21' E 117°52'0 0.0
2014-Sep-06 19:32N 38°21' E 117°52'0 0.0
2014-Sep-06 18:32N 38°21' E 117°52'0 0.0
2014-Sep-06 17:32N 38°21' E 117°52'0 0.0
2014-Sep-06 16:14N 38°21' E 117°52'0 0.0
2014-Sep-06 15:14N 38°21' E 117°52'0 0.0
2014-Sep-06 14:32N 38°21' E 117°52'0 0.0
2014-Sep-06 13:26N 38°21' E 117°52'0 0.0
2014-Sep-06 12:32N 38°21' E 117°52'0 0.0
2014-Sep-06 11:26N 38°21' E 117°52'0 0.0
2014-Sep-06 10:26N 38°21' E 117°52'0 0.0
2014-Sep-06 09:20N 38°21' E 117°52'0 0.0
2014-Sep-06 08:32N 38°21' E 117°52'0 0.0
2014-Sep-06 01:32N 38°21' E 117°52'0 0.0
2014-Sep-05 15:32N 38°21' E 117°52'0 0.0
2014-Sep-05 14:20N 38°21' E 117°52'0 0.0
2014-Sep-05 13:14N 38°21' E 117°52'0 0.0
2014-Sep-05 12:32N 38°21' E 117°52'0 0.0
2014-Sep-04 16:32N 38°21' E 117°52'0 0.0
2014-Sep-04 15:15N 38°21' E 117°52'0 0.0
2014-Sep-04 14:20N 38°21' E 117°52'0 0.0
2014-Sep-04 13:32N 38°21' E 117°52'0 0.0
2014-Sep-04 12:20N 38°21' E 117°52'21 3.1
2014-Sep-04 05:30N 38°32' E 118°16'142 4.2
2014-Sep-02 19:33N 38°26' E 121°17'5111.6
2014-Sep-02 15:11N 37°59' E 122°13'3211.9
2014-Sep-02 12:29N 37°40' E 122°45'3210.9
2014-Sep-02 09:31N 37°13' E 123°06'2110.5
2014-Sep-02 07:28N 36°52' E 123°14'  

Dump ship's entire track history